Airfield :
LOGIN :

Register | Disclaimer

   EN    FR    IT 

 










Legend :    VFR   Marginal VFR   IFR   Intensive IFR   Very Intensive IFR
Visi :
Ceiling :
>= 8 km
>= 3000ft
5 to 8 km
1000 to 3000 ft
1500m to 5 km
500 to 1000 ft
800 to 1500m
200 to 500 ft
< 800m
< 200 ft
Symbols :   Thunderstorms  Fog  Heavy snow  Heavy precipitations  Wind > 20 kt
SIGMETs :     Misc.  Thunderstorms  Icing  Turbulence  Mountain Waves  Volcanic Ashes







- Airport Elevation : 1273 ft
- IATA code : LJU


LJLJ - Ljubljana

CURRENT METAR :
  • 210800Z VRB02KT 8000 NSC 10/09 Q1021 NOSIG

EXPIRED METARs :
  • 210730Z 27002KT 8000 NSC 07/07 Q1021 NOSIG
  • 210700Z VRB02KT 8000 NSC 04/04 Q1021 NOSIG
  • 210630Z 28003KT 8000 NSC 04/04 Q1020 NOSIG
  • 210600Z VRB01KT 8000 NSC 03/03 Q1020 NOSIG
  • 210530Z 30002KT 5000 BR NSC 03/02 Q1020 NOSIG

TAF TAF LJLJ
Valid from the 21 at 06:00 until the 22 at 06:00 UTC


210500Z 2106/2206 29004KT 7000 NSC
BECMG 2106/2107 CAVOK
BECMG 2109/2111 12005KT
BECMG 2119/2122 29003KT
TEMPO 2123/2206 5000 BR SCT020
No reported NOTAMs for that airfield.



MET'MAP, your aeronautical weather chart ! - Copyright ORBIFLY December 2007 - Disclaimer

ORBIFLY MET'MAP TEAM :

Programming & Development : Alexandra Zaïnal
Concept & Development : Baudouin d'Aumeries
Co-Development & Prog : Marc-Olivier Méhu
Technical & hardware support : Manuel Goepfert

Contact : metmap@orbifly.com




SOURCES & CREDITS :

   NOAA